Time;durP1;ratioP1;P1;durP2;ratioP2;P2;SDS_P1;SDS_P2;PMS_P1;PMS_P2;Temp;Humidity;BMP_temperature;BMP_pressure;BME280_temperature;BME280_humidity;BME280_pressure;Samples;Min_cycle;Max_cycle;Signal;HPM_P1;HPM_P2
2022/04/29 00:01:21;;;;;;;17.50;5.53;;;;;;;17.44;54.70;102927.97;5084586;28;20066;-52
2022/04/29 00:03:47;;;;;;;12.77;5.65;;;;;;;17.40;55.19;102928.56;5083538;28;20052;-54
2022/04/29 00:06:14;;;;;;;12.80;5.70;;;;;;;17.22;55.52;102929.78;5091665;28;20490;-54
2022/04/29 00:08:39;;;;;;;19.42;5.68;;;;;;;16.97;57.35;102927.38;5079571;28;20104;-55
2022/04/29 00:11:06;;;;;;;15.15;7.60;;;;;;;17.19;56.33;102922.06;5089573;28;20028;-54
2022/04/29 00:13:32;;;;;;;16.88;6.07;;;;;;;17.15;56.16;102918.06;5085702;28;20045;-53
2022/04/29 00:15:59;;;;;;;20.08;5.75;;;;;;;17.18;56.24;102912.28;5082832;28;20067;-54
2022/04/29 00:18:25;;;;;;;13.23;5.80;;;;;;;16.71;58.07;102908.91;5076007;28;20041;-57
2022/04/29 00:20:51;;;;;;;19.25;6.05;;;;;;;16.88;57.48;102913.09;5092324;28;20036;-53
2022/04/29 00:23:18;;;;;;;20.08;6.43;;;;;;;16.94;57.51;102903.41;5083058;28;20036;-53
2022/04/29 00:25:44;;;;;;;17.17;6.25;;;;;;;16.91;57.19;102903.78;5084369;28;20048;-53
2022/04/29 00:28:10;;;;;;;12.80;6.10;;;;;;;16.85;57.35;102904.56;5090650;28;20036;-53
2022/04/29 00:30:35;;;;;;;11.87;5.97;;;;;;;16.99;56.78;102911.81;5078405;28;20048;-52
2022/04/29 00:33:02;;;;;;;13.60;5.65;;;;;;;16.95;56.90;102910.50;5089591;28;20064;-55
2022/04/29 00:35:28;;;;;;;11.18;6.13;;;;;;;16.55;58.39;102910.78;5083807;28;20032;-52
2022/04/29 00:37:55;;;;;;;13.20;5.78;;;;;;;16.59;58.46;102916.63;5083208;28;20052;-50
2022/04/29 00:40:23;;;;;;;20.55;5.82;;;;;;;16.53;58.56;102912.84;5091644;28;20084;-55
2022/04/29 00:42:49;;;;;;;13.65;5.80;;;;;;;16.63;58.43;102901.75;5062537;28;20028;-52
2022/04/29 00:45:17;;;;;;;12.43;6.40;;;;;;;16.44;59.41;102903.13;5088492;28;20036;-52
2022/04/29 00:47:43;;;;;;;19.17;8.75;;;;;;;16.55;58.89;102901.81;5086024;28;20044;-54
2022/04/29 00:50:11;;;;;;;16.73;6.13;;;;;;;16.41;59.54;102901.66;5079949;28;20073;-53
2022/04/29 00:52:41;;;;;;;16.23;6.05;;;;;;;16.49;59.10;102901.56;5077182;28;20099;-55
2022/04/29 00:55:09;;;;;;;21.45;6.35;;;;;;;16.53;58.94;102901.19;5089783;28;20036;-56
2022/04/29 00:57:50;;;;;;;16.52;5.90;;;;;;;16.48;58.93;102896.31;5085391;28;20032;-50
2022/04/29 01:00:18;;;;;;;11.00;5.50;;;;;;;16.45;59.00;102894.84;5078754;28;20072;-55
2022/04/29 01:02:49;;;;;;;18.15;6.55;;;;;;;16.21;60.06;102885.13;5091777;28;20036;-51
2022/04/29 01:05:16;;;;;;;17.15;6.25;;;;;;;16.09;62.02;102890.13;5082324;28;20036;-51
2022/04/29 01:07:43;;;;;;;18.15;5.60;;;;;;;16.25;60.35;102883.72;5083662;28;20039;-55
2022/04/29 01:10:12;;;;;;;12.40;5.85;;;;;;;16.27;59.62;102883.56;5088454;28;20507;-54
2022/04/29 01:12:40;;;;;;;13.02;5.90;;;;;;;16.38;59.34;102883.13;5077774;28;20149;-55
2022/04/29 01:15:13;;;;;;;16.30;8.30;;;;;;;16.55;58.50;102874.81;5088473;28;20040;-50
2022/04/29 01:17:40;;;;;;;24.65;7.13;;;;;;;16.34;59.03;102876.38;5074059;28;20036;-54
2022/04/29 01:20:08;;;;;;;17.27;6.07;;;;;;;16.01;60.88;102884.81;5087840;28;20044;-53
2022/04/29 01:22:34;;;;;;;16.30;6.63;;;;;;;16.38;59.34;102883.13;5078087;28;20037;-52
2022/04/29 01:25:01;;;;;;;13.95;5.88;;;;;;;16.44;58.54;102865.31;5089936;28;20032;-54
2022/04/29 01:27:26;;;;;;;;;;;;;;;16.33;58.79;102858.50;5083042;28;20036;-50
2022/04/29 01:30:06;;;;;;;19.17;6.27;;;;;;;16.10;60.92;102870.19;5082665;28;19923;-52
2022/04/29 01:32:35;;;;;;;14.13;5.53;;;;;;;16.01;60.79;102869.44;5074399;28;20105;-55
2022/04/29 01:35:02;;;;;;;15.55;6.90;;;;;;;16.38;59.76;102866.91;5089177;28;20036;-54
2022/04/29 01:37:30;;;;;;;10.00;6.15;;;;;;;16.30;59.60;102864.28;5083033;28;20043;-52
2022/04/29 01:39:55;;;;;;;19.58;7.07;;;;;;;16.40;58.77;102859.47;5093904;28;20040;-53
2022/04/29 01:42:22;;;;;;;19.58;6.95;;;;;;;16.41;58.78;102858.44;5078644;28;20037;-55
2022/04/29 01:44:49;;;;;;;17.55;6.97;;;;;;;16.02;60.37;102862.19;5090386;28;20044;-56
2022/04/29 01:47:15;;;;;;;19.40;7.13;;;;;;;15.96;60.70;102857.53;5076217;28;20032;-51
2022/04/29 01:50:09;;;;;;;16.77;6.93;;;;;;;16.08;60.37;102856.06;5073775;28;20078;-52
2022/04/29 01:52:36;;;;;;;14.88;7.15;;;;;;;16.25;59.74;102845.09;5075208;28;20029;-50
2022/04/29 01:55:02;;;;;;;16.40;7.07;;;;;;;15.86;61.11;102855.03;5088532;28;20037;-51
2022/04/29 01:57:31;;;;;;;21.60;7.25;;;;;;;16.20;59.97;102851.03;5073478;28;20028;-55
2022/04/29 01:59:56;;;;;;;13.77;5.93;;;;;;;16.15;59.98;102854.31;5086002;28;20040;-53
2022/04/29 02:02:40;;;;;;;15.50;7.22;;;;;;;16.01;60.59;102850.53;5077552;28;20040;-53
2022/04/29 02:05:07;;;;;;;15.45;5.57;;;;;;;16.09;60.29;102857.72;5088188;28;20029;-50
2022/04/29 02:07:33;;;;;;;18.00;6.63;;;;;;;16.01;60.86;102850.53;5082676;28;20036;-54
2022/04/29 02:09:59;;;;;;;22.23;7.28;;;;;;;15.85;61.61;102842.56;5080432;28;20040;-52
2022/04/29 02:12:25;;;;;;;16.33;6.47;;;;;;;15.69;62.68;102847.06;5089910;28;20139;-53
2022/04/29 02:14:54;;;;;;;22.38;8.25;;;;;;;15.68;63.02;102847.25;5058105;28;20040;-55
2022/04/29 02:17:24;;;;;;;13.65;6.97;;;;;;;15.74;62.83;102844.66;5073086;28;20078;-52
2022/04/29 02:19:51;;;;;;;18.77;7.60;;;;;;;15.73;63.20;102847.56;5085252;28;20040;-54
2022/04/29 02:22:16;;;;;;;17.50;7.60;;;;;;;16.07;61.24;102848.16;5078414;28;20033;-52
2022/04/29 02:24:43;;;;;;;18.52;8.13;;;;;;;15.71;62.40;102838.81;5089687;28;20028;-53
2022/04/29 02:27:08;;;;;;;18.03;7.50;;;;;;;16.01;61.20;102852.41;5078996;28;20067;-53
2022/04/29 02:29:37;;;;;;;21.65;7.75;;;;;;;15.86;61.76;102853.19;5083676;28;20127;-53
2022/04/29 02:32:10;;;;;;;18.23;7.13;;;;;;;15.72;62.50;102852.09;5087300;28;20043;-56
2022/04/29 02:34:36;;;;;;;17.07;7.67;;;;;;;15.66;63.17;102841.19;5075560;28;20033;-55
2022/04/29 02:37:04;;;;;;;15.23;7.57;;;;;;;15.83;62.60;102844.63;5073170;28;20029;-54
2022/04/29 02:39:31;;;;;;;15.35;7.57;;;;;;;15.80;62.17;102855.75;5081503;28;20036;-56
2022/04/29 02:41:56;;;;;;;23.13;8.07;;;;;;;15.60;63.46;102850.88;5081925;28;20082;-54
2022/04/29 02:44:22;;;;;;;13.87;7.93;;;;;;;15.72;63.03;102853.97;5073726;28;20041;-54
2022/04/29 02:49:31;;;;;;;20.35;7.85;;;;;;;15.91;61.63;102855.38;5082081;28;20048;-54
2022/04/29 02:51:57;;;;;;;21.57;8.50;;;;;;;15.87;61.70;102854.84;5084672;28;20047;-56
2022/04/29 02:54:23;;;;;;;17.00;8.35;;;;;;;15.88;61.88;102853.00;5092462;28;20040;-56
2022/04/29 02:56:51;;;;;;;18.52;7.72;;;;;;;15.80;62.00;102843.13;5077168;28;20021;-56
2022/04/29 02:59:30;;;;;;;22.33;8.35;;;;;;;15.81;62.52;102843.97;5085272;28;20029;-51
2022/04/29 03:01:56;;;;;;;20.23;8.67;;;;;;;15.50;63.69;102843.00;5085364;28;20040;-54
2022/04/29 03:04:22;;;;;;;16.17;8.40;;;;;;;15.52;64.35;102846.38;5092323;28;20046;-50
2022/04/29 03:06:48;;;;;;;27.98;8.18;;;;;;;15.73;63.53;102847.56;5089920;28;20060;-52
2022/04/29 03:09:14;;;;;;;21.75;8.98;;;;;;;15.83;62.58;102839.22;5091021;28;20039;-54
2022/04/29 03:11:40;;;;;;;15.63;7.78;;;;;;;15.69;63.15;102824.69;5076525;28;20036;-54
2022/04/29 03:14:06;;;;;;;15.20;8.65;;;;;;;15.69;63.13;102814.72;5089521;28;20039;-53
2022/04/29 03:16:32;;;;;;;25.38;8.15;;;;;;;15.51;64.34;102815.03;5080330;28;20036;-50
2022/04/29 03:18:57;;;;;;;21.77;9.18;;;;;;;15.49;64.83;102817.91;5080291;28;20033;-51
2022/04/29 03:21:24;;;;;;;17.40;7.53;;;;;;;15.60;64.21;102816.63;5088849;28;20040;-54
2022/04/29 03:23:50;;;;;;;25.45;9.25;;;;;;;15.61;64.34;102812.09;5087630;28;20159;-53
2022/04/29 03:26:16;;;;;;;22.40;8.23;;;;;;;15.63;63.86;102818.16;5081830;28;20051;-53
2022/04/29 03:28:42;;;;;;;18.17;7.63;;;;;;;15.31;65.73;102807.41;5092280;28;20033;-54
2022/04/29 03:31:08;;;;;;;16.48;8.00;;;;;;;15.44;64.83;102812.22;5080690;28;20067;-52
2022/04/29 03:34:05;;;;;;;15.95;7.18;;;;;;;15.37;65.60;102810.41;5083343;28;20056;-53
2022/04/29 03:36:31;;;;;;;28.42;8.75;;;;;;;15.71;63.97;102809.97;5076057;28;20037;-54
2022/04/29 03:38:57;;;;;;;17.30;8.15;;;;;;;15.65;63.57;102810.72;5091515;28;20032;-54
2022/04/29 03:41:23;;;;;;;21.55;7.93;;;;;;;15.65;63.63;102801.75;5088156;28;20027;-56
2022/04/29 03:43:50;;;;;;;16.40;8.02;;;;;;;15.56;64.61;102799.16;5086718;28;20086;-53
2022/04/29 03:46:23;;;;;;;23.13;8.13;;;;;;;15.50;64.44;102799.88;5079593;28;20052;-54
2022/04/29 03:51:57;;;;;;;16.35;8.25;;;;;;;15.47;65.15;102805.63;5083162;28;20109;-52
2022/04/29 03:54:22;;;;;;;23.08;8.27;;;;;;;15.28;66.52;102796.13;5090496;28;20068;-51
2022/04/29 03:56:52;;;;;;;21.95;10.07;;;;;;;15.18;67.29;102790.97;5075885;28;20033;-53
2022/04/29 03:59:19;;;;;;;18.00;7.97;;;;;;;15.35;66.42;102791.72;5081581;28;20024;-55
2022/04/29 04:01:45;;;;;;;22.37;9.10;;;;;;;15.22;67.62;102789.59;5084497;28;20044;-52
2022/04/29 04:04:11;;;;;;;19.35;8.48;;;;;;;15.25;66.74;102800.06;5089570;28;20032;-55
2022/04/29 04:06:49;;;;;;;19.95;9.07;;;;;;;15.28;67.08;102798.84;5078936;28;20072;-55
2022/04/29 04:09:21;;;;;;;26.13;8.07;;;;;;;15.24;67.00;102795.69;5089090;28;20024;-53
2022/04/29 04:11:49;;;;;;;16.63;8.07;;;;;;;15.01;69.06;102796.50;5085867;28;20040;-56
2022/04/29 04:14:30;;;;;;;22.35;9.38;;;;;;;15.21;67.97;102790.63;5078621;28;20036;-54
2022/04/29 04:16:56;;;;;;;20.77;9.07;;;;;;;15.23;67.93;102793.16;5078089;28;20075;-55
2022/04/29 04:19:22;;;;;;;21.17;8.48;;;;;;;15.24;67.68;102784.91;5087269;28;20036;-54
2022/04/29 04:21:48;;;;;;;17.40;8.50;;;;;;;15.02;69.44;102783.84;5085089;28;20047;-54
2022/04/29 04:24:14;;;;;;;16.93;8.13;;;;;;;14.93;70.51;102793.81;5081410;28;20036;-54
2022/04/29 04:26:40;;;;;;;19.90;9.38;;;;;;;14.99;70.00;102794.97;5091050;28;20060;-56
2022/04/29 04:29:08;;;;;;;26.85;9.02;;;;;;;14.87;70.58;102783.75;5079878;28;20059;-55
2022/04/29 04:31:41;;;;;;;19.13;8.02;;;;;;;14.88;70.92;102788.13;5085693;28;20037;-53
2022/04/29 04:36:59;;;;;;;24.40;9.23;;;;;;;14.82;72.27;102786.16;5057574;28;20464;-52
2022/04/29 04:39:25;;;;;;;19.10;8.35;;;;;;;14.72;72.97;102792.56;5081631;28;20058;-56
2022/04/29 04:41:55;;;;;;;22.95;9.30;;;;;;;14.60;74.32;102789.41;5082937;28;20036;-53
2022/04/29 04:44:33;;;;;;;20.42;8.52;;;;;;;14.54;75.51;102787.41;5090555;28;20028;-54
2022/04/29 04:46:59;;;;;;;27.48;7.82;;;;;;;14.58;75.02;102790.59;5061229;28;20074;-53
2022/04/29 04:49:43;;;;;;;20.13;8.27;;;;;;;14.71;73.98;102782.81;5085152;28;20116;-54
2022/04/29 04:52:17;;;;;;;17.45;8.52;;;;;;;14.77;74.10;102795.59;5073643;28;20105;-52
2022/04/29 04:54:43;;;;;;;29.52;8.93;;;;;;;14.86;73.16;102790.16;5076347;28;20040;-55
2022/04/29 04:57:09;;;;;;;28.58;8.70;;;;;;;14.77;73.75;102792.06;5089200;28;20067;-53
2022/04/29 04:59:34;;;;;;;27.00;8.13;;;;;;;14.86;72.95;102793.69;5082475;28;20128;-49
2022/04/29 05:02:00;;;;;;;21.80;8.93;;;;;;;14.87;72.75;102791.84;5082195;28;20033;-55
2022/04/29 05:05:04;;;;;;;23.85;7.80;;;;;;;14.73;74.23;102788.88;5063549;28;20044;-54
2022/04/29 05:07:41;;;;;;;22.48;9.45;;;;;;;14.75;73.02;102789.53;5085404;28;20066;-55
2022/04/29 05:10:08;;;;;;;;;;;;;;;14.72;74.01;102792.56;5088366;28;20033;-51
2022/04/29 05:12:42;;;;;;;21.77;7.28;;;;;;;14.85;72.72;102796.56;5075725;28;19922;-52
2022/04/29 05:15:42;;;;;;;14.77;7.93;;;;;;;14.91;72.31;102795.84;5066525;28;20044;-55
2022/04/29 05:18:16;;;;;;;21.67;9.05;;;;;;;14.91;72.21;102796.72;5077653;28;20039;-52
2022/04/29 05:20:51;;;;;;;24.67;8.98;;;;;;;14.91;72.18;102807.50;5089990;28;20131;-52
2022/04/29 05:23:18;;;;;;;23.35;7.90;;;;;;;15.01;72.25;102804.56;5079876;28;20419;-55
2022/04/29 05:26:13;;;;;;;21.45;8.43;;;;;;;15.02;71.93;102808.94;5079970;28;20041;-53
2022/04/29 05:29:14;;;;;;;22.27;8.65;;;;;;;15.23;70.79;102810.19;5052768;28;20060;-55
2022/04/29 05:31:59;;;;;;;18.15;7.95;;;;;;;15.10;72.11;102809.91;5074109;28;20051;-57
2022/04/29 05:34:55;;;;;;;19.25;8.00;;;;;;;15.18;70.78;102809.84;5072544;28;20131;-52
2022/04/29 05:37:40;;;;;;;17.38;7.90;;;;;;;15.33;70.29;102808.06;5074399;28;20048;-57
2022/04/29 05:42:57;;;;;;;22.73;9.02;;;;;;;15.05;72.21;102808.59;5076260;28;20032;-53
2022/04/29 05:45:23;;;;;;;28.50;8.30;;;;;;;15.11;72.19;102811.59;5086805;28;20033;-56
2022/04/29 05:47:49;;;;;;;24.25;8.30;;;;;;;15.20;71.25;102805.97;5083414;28;20028;-54
2022/04/29 05:50:14;;;;;;;30.30;8.80;;;;;;;15.22;71.59;102805.78;5079165;28;20060;-54
2022/04/29 05:52:41;;;;;;;18.92;8.32;;;;;;;15.25;71.50;102802.75;5089584;28;20029;-53
2022/04/29 05:55:07;;;;;;;25.57;8.63;;;;;;;15.31;70.07;102807.41;5077548;28;20029;-56
2022/04/29 05:57:34;;;;;;;18.60;8.80;;;;;;;15.05;72.73;102813.97;5084641;28;20321;-56
2022/04/29 06:00:00;;;;;;;20.17;8.38;;;;;;;15.34;70.13;102817.00;5062440;28;20061;-53
2022/04/29 06:02:44;;;;;;;26.02;7.88;;;;;;;15.61;68.43;102818.31;5071680;28;20052;-55
2022/04/29 06:05:11;;;;;;;18.60;7.88;;;;;;;15.53;68.24;102821.06;5066070;28;20109;-55
2022/04/29 06:07:41;;;;;;;25.48;8.25;;;;;;;15.52;68.13;102813.16;5061296;28;20059;-51
2022/04/29 06:10:08;;;;;;;22.95;7.63;;;;;;;15.47;69.08;102817.25;5064469;28;20025;-56
2022/04/29 06:12:42;;;;;;;17.52;8.00;;;;;;;15.44;69.25;102822.13;5064226;28;20048;-55
2022/04/29 06:15:19;;;;;;;28.52;9.13;;;;;;;15.61;68.40;102822.88;5059490;28;20026;-52
2022/04/29 06:18:03;;;;;;;19.40;8.45;;;;;;;16.00;66.41;102832.69;5061857;28;20131;-56
2022/04/29 06:20:53;;;;;;;18.95;8.07;;;;;;;15.90;65.71;102840.19;5060402;28;20033;-54
2022/04/29 06:23:37;;;;;;;18.80;8.00;;;;;;;16.13;64.92;102831.22;5063780;28;20049;-55
2022/04/29 06:26:03;;;;;;;15.05;7.10;;;;;;;15.83;65.72;102826.56;5065895;28;20482;-55
2022/04/29 06:28:32;;;;;;;30.55;8.27;;;;;;;16.07;64.14;102830.09;5062307;28;20104;-56
2022/04/29 06:30:59;;;;;;;22.00;7.72;;;;;;;16.28;63.84;102829.38;5070687;28;20031;-55
2022/04/29 06:33:30;;;;;;;22.90;8.38;;;;;;;16.11;64.92;102822.47;5065269;28;20044;-54
2022/04/29 06:35:56;;;;;;;19.33;8.27;;;;;;;16.05;65.09;102834.84;5067810;28;20048;-54
2022/04/29 06:38:22;;;;;;;24.92;9.23;;;;;;;16.22;65.17;102830.09;5064330;28;20045;-56
2022/04/29 06:40:57;;;;;;;18.88;8.23;;;;;;;16.28;65.01;102829.38;5073531;28;20017;-53
2022/04/29 06:43:30;;;;;;;17.63;8.45;;;;;;;16.56;62.35;102825.19;5070585;28;20062;-57
2022/04/29 06:46:17;;;;;;;26.02;7.90;;;;;;;16.58;62.43;102828.53;5065030;28;20063;-56
2022/04/29 06:49:01;;;;;;;17.10;6.97;;;;;;;16.59;60.89;102830.19;5066820;28;20056;-55
2022/04/29 06:51:52;;;;;;;16.13;7.32;;;;;;;16.78;60.94;102837.72;5070197;28;20100;-55
2022/04/29 06:54:26;;;;;;;17.85;8.05;;;;;;;16.67;62.24;102843.63;5073357;28;20025;-57
2022/04/29 06:56:59;;;;;;;19.83;7.00;;;;;;;16.97;59.55;102845.47;5071408;28;20051;-54
2022/04/29 06:59:26;;;;;;;25.95;8.23;;;;;;;17.04;60.00;102844.53;5067765;28;20033;-53
2022/04/29 07:01:52;;;;;;;18.92;7.82;;;;;;;17.43;58.29;102847.88;5074334;28;20097;-56
2022/04/29 07:04:17;;;;;;;14.47;7.30;;;;;;;17.31;57.38;102847.53;5065902;28;20033;-56
2022/04/29 07:06:43;;;;;;;22.23;8.30;;;;;;;17.37;57.46;102853.22;5076875;28;20349;-57
2022/04/29 07:09:09;;;;;;;17.13;9.13;;;;;;;17.87;55.99;102858.66;5066366;28;20471;-52
2022/04/29 07:11:55;;;;;;;17.52;8.38;;;;;;;17.82;55.64;102861.13;5067595;28;20048;-57
2022/04/29 07:14:53;;;;;;;20.15;6.97;;;;;;;17.61;55.01;102858.25;5068019;28;20048;-55
2022/04/29 07:17:23;;;;;;;13.70;7.20;;;;;;;17.92;54.77;102856.22;5064335;28;20028;-56
2022/04/29 07:19:53;;;;;;;18.55;7.40;;;;;;;17.96;54.12;102856.66;5065532;28;20033;-54
2022/04/29 07:22:20;;;;;;;16.77;6.60;;;;;;;17.53;55.16;102844.84;5071391;28;20051;-56
2022/04/29 07:24:46;;;;;;;27.65;7.20;;;;;;;17.67;55.07;102842.25;5071099;28;20037;-57
2022/04/29 07:27:13;;;;;;;18.80;6.95;;;;;;;17.99;54.94;102848.97;5063299;28;20043;-55
2022/04/29 07:29:38;;;;;;;20.35;7.28;;;;;;;18.62;53.01;102845.47;5059345;28;20033;-57
2022/04/29 07:32:24;;;;;;;20.80;6.35;;;;;;;18.61;52.84;102829.41;5063620;28;20029;-55
2022/04/29 07:43:57;;;;;;;20.30;6.03;;;;;;;18.75;50.95;102828.44;5068220;28;20271;-57
2022/04/29 07:46:24;;;;;;;;;;;;;;;19.40;49.33;102839.91;5074099;28;20287;-58
2022/04/29 07:49:08;;;;;;;13.03;6.00;;;;;;;19.46;49.56;102836.38;5065802;28;19932;-55
2022/04/29 07:51:35;;;;;;;13.10;6.07;;;;;;;19.49;48.28;102830.53;5080651;28;20283;-55
2022/04/29 07:54:00;;;;;;;20.17;5.85;;;;;;;19.27;49.31;102841.56;5084222;28;20292;-58
2022/04/29 07:56:26;;;;;;;19.60;5.77;;;;;;;19.52;48.04;102837.44;5076122;28;20096;-54
2022/04/29 07:58:55;;;;;;;14.77;6.03;;;;;;;19.82;48.29;102847.88;5091904;28;20031;-53
2022/04/29 08:01:21;;;;;;;12.10;4.87;;;;;;;19.48;47.97;102845.97;5081491;28;20627;-55
2022/04/29 08:03:47;;;;;;;22.13;7.32;;;;;;;19.58;49.03;102850.16;5086147;28;20292;-54
2022/04/29 08:06:16;;;;;;;16.93;6.70;;;;;;;20.01;47.39;102857.09;5088699;28;20044;-56
2022/04/29 08:08:42;;;;;;;11.95;5.90;;;;;;;19.82;48.25;102848.69;5095185;28;20375;-55
2022/04/29 08:11:08;;;;;;;19.92;6.60;;;;;;;19.89;48.14;102849.56;5080010;28;20043;-56
2022/04/29 08:13:45;;;;;;;15.05;5.53;;;;;;;20.05;47.33;102855.63;5086364;28;20043;-54
2022/04/29 08:16:32;;;;;;;16.10;6.40;;;;;;;20.31;47.34;102854.75;5075978;28;20377;-56
2022/04/29 08:19:09;;;;;;;19.53;5.67;;;;;;;20.67;46.10;102860.72;5062504;28;20273;-54
2022/04/29 08:21:50;;;;;;;18.83;6.10;;;;;;;20.98;45.64;102859.16;5078308;28;20317;-56
2022/04/29 08:24:16;;;;;;;14.55;5.68;;;;;;;21.12;44.78;102856.38;5068841;28;20274;-56
2022/04/29 08:26:41;;;;;;;16.98;5.53;;;;;;;20.63;45.49;102851.31;5062346;28;20033;-57
2022/04/29 08:29:08;;;;;;;18.57;6.37;;;;;;;20.83;44.95;102856.72;5066836;28;20035;-57
2022/04/29 08:31:34;;;;;;;17.17;5.73;;;;;;;20.69;45.18;102864.06;5076434;28;20044;-58
2022/04/29 08:34:01;;;;;;;22.13;6.22;;;;;;;20.65;44.92;102851.94;5067950;28;20282;-56
2022/04/29 08:36:27;;;;;;;18.90;5.65;;;;;;;20.88;43.67;102856.06;5073622;28;20033;-54
2022/04/29 08:38:53;;;;;;;21.08;6.07;;;;;;;21.03;42.73;102864.78;5076507;28;20037;-56
2022/04/29 08:41:19;;;;;;;15.00;6.03;;;;;;;21.04;42.91;102860.16;5069244;28;20045;-56
2022/04/29 08:43:50;;;;;;;12.83;5.50;;;;;;;20.76;43.22;102858.59;5075783;28;20067;-55
2022/04/29 08:46:30;;;;;;;12.93;5.80;;;;;;;20.90;42.65;102853.97;5068481;28;20290;-56
2022/04/29 08:49:18;;;;;;;14.17;4.43;;;;;;;20.94;42.12;102854.38;5063285;28;20320;-56
2022/04/29 08:51:43;;;;;;;12.45;4.65;;;;;;;21.39;40.97;102858.94;5068556;28;20274;-54
2022/04/29 08:58:36;;;;;;;13.20;4.25;;;;;;;21.25;40.48;102859.03;5066530;28;20036;-53
2022/04/29 08:59:40;;;;;;;14.00;4.90;;;;;;;21.28;40.29;102864.03;5067562;28;20278;-56
2022/04/29 09:02:05;;;;;;;9.25;4.53;;;;;;;21.43;40.15;102860.16;5060299;28;20821;-57
2022/04/29 09:04:31;;;;;;;15.20;4.97;;;;;;;21.55;39.61;102855.69;5070792;28;20041;-54
2022/04/29 09:06:57;;;;;;;13.70;5.35;;;;;;;22.08;39.48;102867.22;5063950;28;20064;-57
2022/04/29 09:09:22;;;;;;;21.87;6.40;;;;;;;22.03;39.39;102861.59;5066341;28;20041;-58
2022/04/29 09:11:48;;;;;;;13.15;5.55;;;;;;;22.04;38.52;102852.38;5070803;28;20138;-58
2022/04/29 09:14:21;;;;;;;12.38;4.30;;;;;;;21.95;38.42;102846.38;5065345;28;20136;-56
2022/04/29 09:16:48;;;;;;;14.23;4.53;;;;;;;22.08;37.29;102859.03;5058371;28;20021;-54
2022/04/29 09:19:35;;;;;;;16.43;5.47;;;;;;;22.09;38.25;102865.31;5063534;28;20289;-55
2022/04/29 09:22:05;;;;;;;10.97;4.27;;;;;;;;;;5077505;28;20281;-55
2022/04/29 09:24:38;;;;;;;13.67;3.70;;;;;;;21.69;39.08;102866.50;5066629;28;20262;-55
2022/04/29 09:28:02;;;;;;;15.43;5.85;;;;;;;22.12;38.89;102871.13;5069644;28;20318;-55
2022/04/29 09:30:46;;;;;;;14.83;6.07;;;;;;;22.23;38.93;102871.47;5066222;28;20022;-58
2022/04/29 09:33:32;;;;;;;14.03;5.53;;;;;;;22.15;39.28;102861.69;5059104;28;20274;-57
2022/04/29 09:36:26;;;;;;;11.83;5.40;;;;;;;22.07;39.41;102857.38;5061077;28;20273;-54
2022/04/29 09:41:57;;;;;;;15.40;6.07;;;;;;;22.08;39.03;102859.03;5061152;28;20274;-58
2022/04/29 09:44:30;;;;;;;14.87;5.87;;;;;;;22.20;39.24;102856.41;5058473;28;20346;-53
2022/04/29 09:46:56;;;;;;;16.90;5.87;;;;;;;22.25;39.28;102858.47;5062702;28;20283;-56
2022/04/29 09:49:27;;;;;;;20.98;5.72;;;;;;;21.85;39.53;102855.03;5070268;28;20277;-56
2022/04/29 09:51:52;;;;;;;15.30;5.30;;;;;;;22.24;38.97;102851.34;5068263;28;20036;-55
2022/04/29 09:54:19;;;;;;;10.48;3.88;;;;;;;22.23;39.18;102850.50;5059127;28;20302;-57
2022/04/29 09:56:47;;;;;;;11.50;4.87;;;;;;;22.28;39.33;102842.50;5063943;28;20068;-56
2022/04/29 09:59:13;;;;;;;15.23;6.13;;;;;;;22.61;38.92;102840.50;5075294;28;20273;-57
2022/04/29 10:01:40;;;;;;;17.55;6.00;;;;;;;22.48;39.45;102842.31;5085970;28;20262;-57
2022/04/29 10:04:06;;;;;;;8.53;4.23;;;;;;;22.54;38.89;102846.03;5064462;28;20044;-56
2022/04/29 10:06:32;;;;;;;15.15;6.13;;;;;;;22.41;39.17;102843.41;5071293;28;20286;-56
2022/04/29 10:08:59;;;;;;;13.83;6.53;;;;;;;22.52;39.04;102847.28;5090317;28;20037;-55
2022/04/29 10:11:27;;;;;;;15.37;5.90;;;;;;;22.77;39.05;102839.03;5079956;28;20269;-56
2022/04/29 10:13:53;;;;;;;10.37;4.73;;;;;;;22.42;39.08;102845.91;5083933;28;20296;-58
2022/04/29 10:16:31;;;;;;;13.20;6.27;;;;;;;22.68;38.79;102846.69;5069208;28;20255;-56
2022/04/29 10:22:13;;;;;;;11.47;5.57;;;;;;;22.68;38.44;102857.59;5061875;28;20314;-55
2022/04/29 10:24:39;;;;;;;13.73;5.40;;;;;;;22.62;39.05;102858.50;5082443;28;20329;-57
2022/04/29 10:27:05;;;;;;;16.30;5.88;;;;;;;23.06;38.45;102847.44;5090105;28;20403;-56
2022/04/29 10:29:31;;;;;;;14.88;5.40;;;;;;;22.89;38.10;102841.81;5076668;28;20044;-57
2022/04/29 10:32:07;;;;;;;18.42;6.30;;;;;;;23.02;37.85;102844.34;5083451;28;20064;-58
2022/04/29 10:34:34;;;;;;;21.10;6.75;;;;;;;22.83;38.31;102835.38;5073401;28;20115;-59
2022/04/29 10:37:11;;;;;;;22.33;6.67;;;;;;;22.81;38.54;102840.22;5089079;28;20137;-55
2022/04/29 10:39:38;;;;;;;20.90;6.07;;;;;;;23.19;37.60;102846.44;5078229;28;20265;-55
2022/04/29 10:42:09;;;;;;;9.57;3.93;;;;;;;23.08;37.61;102836.31;5063082;28;20262;-55
2022/04/29 10:45:15;;;;;;;15.20;5.17;;;;;;;23.66;36.62;102840.28;5067013;28;20262;-57
2022/04/29 10:47:41;;;;;;;18.83;6.23;;;;;;;23.77;36.36;102830.44;5074349;28;20289;-57
2022/04/29 10:50:29;;;;;;;12.73;5.70;;;;;;;23.62;36.87;102834.44;5061750;28;20403;-57
2022/04/29 10:53:14;;;;;;;16.27;5.10;;;;;;;23.30;36.71;102832.03;5041653;28;20329;-56
2022/04/29 10:55:39;;;;;;;15.32;5.55;;;;;;;23.34;36.38;102827.75;5043228;28;20276;-58
2022/04/29 10:58:45;;;;;;;14.43;5.20;;;;;;;23.82;35.79;102836.00;5043063;28;20038;-58
2022/04/29 11:01:16;;;;;;;9.38;5.03;;;;;;;23.68;36.07;102840.03;5044475;28;20033;-58
2022/04/29 11:03:45;;;;;;;14.70;4.97;;;;;;;23.51;36.12;102832.53;5065371;28;20041;-56
2022/04/29 11:06:14;;;;;;;19.77;5.10;;;;;;;23.43;36.50;102824.69;5064331;28;20294;-57
2022/04/29 11:08:41;;;;;;;14.77;5.23;;;;;;;23.79;36.11;102822.84;5057576;28;20271;-55
2022/04/29 11:11:07;;;;;;;10.30;4.80;;;;;;;23.69;36.07;102820.69;5070686;28;20276;-54
2022/04/29 11:13:47;;;;;;;13.93;6.20;;;;;;;23.84;36.03;102820.22;5055888;28;20271;-58
2022/04/29 11:16:53;;;;;;;11.77;5.03;;;;;;;23.15;36.83;102823.41;5070725;28;20265;-56
2022/04/29 11:19:45;;;;;;;17.77;6.13;;;;;;;23.34;36.95;102822.31;5043893;28;20304;-55
2022/04/29 11:25:03;;;;;;;16.53;6.33;;;;;;;23.82;36.81;102827.81;5057300;28;20029;-58
2022/04/29 11:27:55;;;;;;;17.57;7.67;;;;;;;23.78;37.07;102821.16;5065968;28;20304;-57
2022/04/29 11:30:46;;;;;;;15.33;6.63;;;;;;;24.09;36.57;102821.06;5068560;28;20072;-55
2022/04/29 11:33:14;;;;;;;14.73;6.30;;;;;;;24.30;36.31;102827.81;5040347;28;20033;-56
2022/04/29 11:35:40;;;;;;;15.93;7.10;;;;;;;24.44;36.05;102829.19;5063684;28;20033;-56
2022/04/29 11:38:09;;;;;;;10.18;4.97;;;;;;;24.92;35.24;102820.88;5064995;28;20101;-56
2022/04/29 11:40:42;;;;;;;13.47;5.70;;;;;;;25.12;34.76;102817.69;5070808;28;20071;-56
2022/04/29 11:43:10;;;;;;;14.27;5.67;;;;;;;25.12;34.52;102814.94;5059193;28;20033;-53
2022/04/29 11:45:37;;;;;;;10.27;5.43;;;;;;;24.89;34.72;102819.44;5069703;28;20045;-59
2022/04/29 11:48:06;;;;;;;13.57;5.00;;;;;;;25.45;34.00;102807.00;5063851;28;20034;-56
2022/04/29 11:50:36;;;;;;;13.97;5.33;;;;;;;25.14;33.75;102810.03;5090296;28;20040;-55
2022/04/29 11:53:10;;;;;;;14.23;5.70;;;;;;;25.57;33.37;102807.75;5077551;28;20052;-55
2022/04/29 11:55:37;;;;;;;11.07;4.43;;;;;;;25.58;33.19;102811.34;5081856;28;20033;-54
2022/04/29 11:58:04;;;;;;;12.43;5.87;;;;;;;26.39;32.21;102806.44;5075827;28;20037;-57
2022/04/29 12:00:30;;;;;;;;;;;;;;;26.46;31.45;102818.88;5090316;28;20047;-59
2022/04/29 12:02:57;;;;;;;9.77;4.55;;;;;;;26.41;31.85;102821.56;5079140;28;19912;-57
2022/04/29 12:05:24;;;;;;;17.40;4.97;;;;;;;26.99;31.15;102823.91;5091360;28;20033;-58
2022/04/29 12:07:51;;;;;;;17.30;4.80;;;;;;;26.38;31.61;102822.09;5083067;28;20032;-57
2022/04/29 12:10:29;;;;;;;14.93;4.88;;;;;;;26.21;31.84;102813.91;5088765;28;20047;-58